Noblesville, Indiana
Current Conditions -  °F | °C
As of 3:35 AM on Sunday 23 Nov 2014 (Local Time) from KTYQ Reporting Station
Broken Clouds Broken Clouds  
Wind Chill:   Ceiling: 12000
Heat Index:   Visibility: 10mi
Dew Point:   Wind: 7mph
Humidity: 77%   Direction: 170°S
Pressure: 29.94"   Gusts: NA
Location:  40.05°N, 86.01°W
Report Text: KTYQ 230835Z AUTO 17006KT 10SM SCT034 SCT095 BKN120 08/05 A2994 RMK AO2 T00830045
Loading
Personal Weather Stations






























Interactive Weather Map New forecast layout! Learn more

10-Day Weather Forecast

Advertisements
Track Severe Weather on mobile